This is the latest recevied weather packets stored in our database for station/object JE0GNV-13. If no packets are shown the sender has not sent any weather packets the latest 1 day(s).
| Time | Temp. | Humidity | Pressure | Rain* | Wind** | Luminosity | Snow |
|---|---|---|---|---|---|---|---|
| 1836274638 | 20° C | 86% | 1014.6 hPa | 0 mm | 0 m/s | - | - |
| 1836274531 | 18.89° C | 96% | 1011.7 hPa | 0.51 mm | 0.89 m/s, 186° | - | - |
| 1836274487 | 18.89° C | 96% | 1011.7 hPa | 0.25 mm | 0.89 m/s, 201° | - | - |
| 1778028601 | 13.89° C | 71% | 1019.6 hPa | 0 mm | 0 m/s | - | - |
| 1778028002 | 13.33° C | 74% | 1019.6 hPa | 0 mm | 0 m/s | - | - |
| 1778027400 | 12.78° C | 70% | 1019.7 hPa | 0 mm | 0 m/s | - | - |
| 1778026800 | 12.22° C | 73% | 1019.8 hPa | 0 mm | 0 m/s | - | - |
| 1778026200 | 11.67° C | 76% | 1019.8 hPa | 0 mm | 0 m/s | - | - |
| 1778025601 | 11.67° C | 76% | 1019.9 hPa | 0 mm | 0 m/s | - | - |
| 1778025001 | 11.11° C | 76% | 1020 hPa | 0 mm | 0 m/s | - | - |
| 1778024401 | 11.11° C | 76% | 1020 hPa | 0 mm | 0 m/s | - | - |
| 1778023802 | 10.56° C | 78% | 1020.1 hPa | 0 mm | 0 m/s | - | - |
| 1778023201 | 10.56° C | 79% | 1020.1 hPa | 0 mm | 0 m/s | - | - |
| 1778022600 | 10.56° C | 78% | 1020.1 hPa | 0 mm | 0 m/s | - | - |
| 1778022001 | 10.56° C | 79% | 1020 hPa | 0 mm | 0 m/s | - | - |
| 1778021401 | 10° C | 85% | 1020 hPa | 0 mm | 0 m/s | - | - |
| 1778020800 | 9.44° C | 84% | 1020 hPa | 0 mm | 0 m/s | - | - |
| 1778020202 | 9.44° C | 85% | 1020 hPa | 0 mm | 0 m/s | - | - |
| 1778019600 | 8.89° C | 84% | 1019.9 hPa | 0 mm | 0 m/s | - | - |
| 1778019000 | 8.89° C | 85% | 1019.9 hPa | 0 mm | 0 m/s | - | - |
| 1778018400 | 8.89° C | 85% | 1019.9 hPa | 0 mm | 0 m/s | - | - |
| 1778017801 | 8.33° C | 85% | 1019.9 hPa | 0 mm | 0 m/s | - | - |
| 1778017202 | 8.33° C | 89% | 1019.9 hPa | 0 mm | 0 m/s | - | - |
| 1778016601 | 8.33° C | 88% | 1019.8 hPa | 0 mm | 0 m/s | - | - |
| 1778016001 | 7.78° C | 88% | 1020 hPa | 0 mm | 0 m/s | - | - |
* Rain latest hour (hover to see other rain measurements)
** Current wind speed in m/s (hover to see current wind gust speed)